sensor_id;sensor_type;location;lat;lon;timestamp;P1;durP1;ratioP1;P2;durP2;ratioP2
12597;SDS011;6364;53.590;9.956;2023-11-18T00:01:11;14.50;;;9.13;;
12597;SDS011;6364;53.590;9.956;2023-11-18T00:03:37;14.35;;;9.90;;
12597;SDS011;6364;53.590;9.956;2023-11-18T00:06:02;15.18;;;10.15;;
12597;SDS011;6364;53.590;9.956;2023-11-18T00:08:28;13.80;;;9.25;;
12597;SDS011;6364;53.590;9.956;2023-11-18T00:10:53;14.48;;;9.52;;
12597;SDS011;6364;53.590;9.956;2023-11-18T00:13:19;16.13;;;9.60;;
12597;SDS011;6364;53.590;9.956;2023-11-18T00:15:44;15.07;;;9.38;;
12597;SDS011;6364;53.590;9.956;2023-11-18T00:18:11;14.48;;;9.25;;
12597;SDS011;6364;53.590;9.956;2023-11-18T00:20:36;14.23;;;9.20;;
12597;SDS011;6364;53.590;9.956;2023-11-18T00:23:02;14.95;;;9.00;;
12597;SDS011;6364;53.590;9.956;2023-11-18T00:25:29;15.55;;;9.70;;
12597;SDS011;6364;53.590;9.956;2023-11-18T00:27:55;13.70;;;9.65;;
12597;SDS011;6364;53.590;9.956;2023-11-18T00:30:20;10.80;;;7.82;;
12597;SDS011;6364;53.590;9.956;2023-11-18T00:32:46;11.68;;;8.52;;
12597;SDS011;6364;53.590;9.956;2023-11-18T00:35:11;12.73;;;9.20;;
12597;SDS011;6364;53.590;9.956;2023-11-18T00:37:36;14.98;;;9.35;;
12597;SDS011;6364;53.590;9.956;2023-11-18T00:40:02;13.23;;;8.90;;
12597;SDS011;6364;53.590;9.956;2023-11-18T00:42:28;13.80;;;9.60;;
12597;SDS011;6364;53.590;9.956;2023-11-18T00:44:54;14.55;;;9.18;;
12597;SDS011;6364;53.590;9.956;2023-11-18T00:47:20;13.80;;;8.90;;
12597;SDS011;6364;53.590;9.956;2023-11-18T00:49:48;13.95;;;8.82;;
12597;SDS011;6364;53.590;9.956;2023-11-18T00:52:14;14.48;;;9.05;;
12597;SDS011;6364;53.590;9.956;2023-11-18T00:54:40;15.27;;;9.88;;
12597;SDS011;6364;53.590;9.956;2023-11-18T00:57:05;17.85;;;10.45;;
12597;SDS011;6364;53.590;9.956;2023-11-18T00:59:31;14.55;;;9.43;;
12597;SDS011;6364;53.590;9.956;2023-11-18T01:01:56;14.00;;;9.30;;
12597;SDS011;6364;53.590;9.956;2023-11-18T01:04:21;18.33;;;10.10;;
12597;SDS011;6364;53.590;9.956;2023-11-18T01:06:47;15.52;;;10.30;;
12597;SDS011;6364;53.590;9.956;2023-11-18T01:09:13;16.05;;;10.30;;
12597;SDS011;6364;53.590;9.956;2023-11-18T01:11:39;15.25;;;9.63;;
12597;SDS011;6364;53.590;9.956;2023-11-18T01:14:05;14.88;;;10.45;;
12597;SDS011;6364;53.590;9.956;2023-11-18T01:16:31;20.02;;;10.18;;
12597;SDS011;6364;53.590;9.956;2023-11-18T01:18:56;16.00;;;10.50;;
12597;SDS011;6364;53.590;9.956;2023-11-18T01:21:22;15.07;;;10.02;;
12597;SDS011;6364;53.590;9.956;2023-11-18T01:23:48;18.35;;;10.63;;
12597;SDS011;6364;53.590;9.956;2023-11-18T01:26:13;16.67;;;10.88;;
12597;SDS011;6364;53.590;9.956;2023-11-18T01:28:40;16.20;;;10.40;;
12597;SDS011;6364;53.590;9.956;2023-11-18T01:31:10;16.42;;;10.65;;
12597;SDS011;6364;53.590;9.956;2023-11-18T01:33:36;18.73;;;10.93;;
12597;SDS011;6364;53.590;9.956;2023-11-18T01:36:03;16.45;;;9.63;;
12597;SDS011;6364;53.590;9.956;2023-11-18T01:38:29;16.55;;;11.27;;
12597;SDS011;6364;53.590;9.956;2023-11-18T01:40:55;17.98;;;10.73;;
12597;SDS011;6364;53.590;9.956;2023-11-18T01:43:21;15.60;;;10.48;;
12597;SDS011;6364;53.590;9.956;2023-11-18T01:45:47;16.85;;;11.27;;
12597;SDS011;6364;53.590;9.956;2023-11-18T01:48:13;16.70;;;10.35;;
12597;SDS011;6364;53.590;9.956;2023-11-18T01:50:38;15.95;;;9.93;;
12597;SDS011;6364;53.590;9.956;2023-11-18T01:53:05;17.58;;;11.35;;
12597;SDS011;6364;53.590;9.956;2023-11-18T01:55:31;16.20;;;10.73;;
12597;SDS011;6364;53.590;9.956;2023-11-18T01:57:56;17.42;;;11.00;;
12597;SDS011;6364;53.590;9.956;2023-11-18T02:00:23;16.63;;;10.82;;
12597;SDS011;6364;53.590;9.956;2023-11-18T02:02:49;16.63;;;10.63;;
12597;SDS011;6364;53.590;9.956;2023-11-18T02:05:15;18.70;;;11.00;;
12597;SDS011;6364;53.590;9.956;2023-11-18T02:07:42;18.00;;;10.80;;
12597;SDS011;6364;53.590;9.956;2023-11-18T02:10:08;16.95;;;10.35;;
12597;SDS011;6364;53.590;9.956;2023-11-18T02:15:05;17.40;;;11.25;;
12597;SDS011;6364;53.590;9.956;2023-11-18T02:17:34;16.20;;;10.70;;
12597;SDS011;6364;53.590;9.956;2023-11-18T02:20:02;14.82;;;10.02;;
12597;SDS011;6364;53.590;9.956;2023-11-18T02:22:35;15.70;;;10.65;;
12597;SDS011;6364;53.590;9.956;2023-11-18T02:25:01;17.63;;;10.98;;
12597;SDS011;6364;53.590;9.956;2023-11-18T02:27:31;18.00;;;10.55;;
12597;SDS011;6364;53.590;9.956;2023-11-18T02:29:56;18.15;;;11.20;;
12597;SDS011;6364;53.590;9.956;2023-11-18T02:32:28;17.38;;;10.55;;
12597;SDS011;6364;53.590;9.956;2023-11-18T02:35:02;15.88;;;10.63;;
12597;SDS011;6364;53.590;9.956;2023-11-18T02:37:35;14.98;;;10.45;;
12597;SDS011;6364;53.590;9.956;2023-11-18T02:40:03;16.85;;;11.00;;
12597;SDS011;6364;53.590;9.956;2023-11-18T02:42:39;15.75;;;10.23;;
12597;SDS011;6364;53.590;9.956;2023-11-18T02:45:07;16.88;;;9.80;;
12597;SDS011;6364;53.590;9.956;2023-11-18T02:47:33;14.55;;;9.52;;
12597;SDS011;6364;53.590;9.956;2023-11-18T02:49:58;16.58;;;10.40;;
12597;SDS011;6364;53.590;9.956;2023-11-18T02:52:44;16.10;;;10.05;;
12597;SDS011;6364;53.590;9.956;2023-11-18T02:55:09;16.58;;;10.40;;
12597;SDS011;6364;53.590;9.956;2023-11-18T02:57:36;15.25;;;10.43;;
12597;SDS011;6364;53.590;9.956;2023-11-18T03:00:01;13.57;;;8.80;;
12597;SDS011;6364;53.590;9.956;2023-11-18T03:02:29;16.27;;;10.05;;
12597;SDS011;6364;53.590;9.956;2023-11-18T03:04:57;13.77;;;9.82;;
12597;SDS011;6364;53.590;9.956;2023-11-18T03:07:23;15.27;;;10.57;;
12597;SDS011;6364;53.590;9.956;2023-11-18T03:09:48;15.93;;;9.45;;
12597;SDS011;6364;53.590;9.956;2023-11-18T03:12:14;17.98;;;10.35;;
12597;SDS011;6364;53.590;9.956;2023-11-18T03:14:39;18.23;;;10.07;;
12597;SDS011;6364;53.590;9.956;2023-11-18T03:17:05;16.77;;;9.43;;
12597;SDS011;6364;53.590;9.956;2023-11-18T03:19:34;16.92;;;10.00;;
12597;SDS011;6364;53.590;9.956;2023-11-18T03:22:00;15.35;;;10.50;;
12597;SDS011;6364;53.590;9.956;2023-11-18T03:24:27;16.15;;;10.75;;
12597;SDS011;6364;53.590;9.956;2023-11-18T03:26:54;16.77;;;10.13;;
12597;SDS011;6364;53.590;9.956;2023-11-18T03:29:22;15.95;;;10.13;;
12597;SDS011;6364;53.590;9.956;2023-11-18T03:31:48;16.35;;;11.15;;
12597;SDS011;6364;53.590;9.956;2023-11-18T03:34:17;15.13;;;10.35;;
12597;SDS011;6364;53.590;9.956;2023-11-18T03:36:45;15.90;;;10.73;;
12597;SDS011;6364;53.590;9.956;2023-11-18T03:39:11;14.93;;;10.25;;
12597;SDS011;6364;53.590;9.956;2023-11-18T03:41:37;15.77;;;10.23;;
12597;SDS011;6364;53.590;9.956;2023-11-18T03:44:03;15.23;;;10.50;;
12597;SDS011;6364;53.590;9.956;2023-11-18T03:46:29;15.80;;;10.95;;
12597;SDS011;6364;53.590;9.956;2023-11-18T03:48:56;16.25;;;10.27;;
12597;SDS011;6364;53.590;9.956;2023-11-18T03:51:24;17.52;;;11.00;;
12597;SDS011;6364;53.590;9.956;2023-11-18T03:53:50;17.48;;;10.93;;
12597;SDS011;6364;53.590;9.956;2023-11-18T03:56:19;16.50;;;11.10;;
12597;SDS011;6364;53.590;9.956;2023-11-18T03:58:47;16.92;;;11.32;;
12597;SDS011;6364;53.590;9.956;2023-11-18T04:01:20;18.88;;;11.63;;
12597;SDS011;6364;53.590;9.956;2023-11-18T04:03:48;19.08;;;12.10;;
12597;SDS011;6364;53.590;9.956;2023-11-18T04:06:14;17.15;;;11.73;;
12597;SDS011;6364;53.590;9.956;2023-11-18T04:08:44;21.75;;;11.75;;
12597;SDS011;6364;53.590;9.956;2023-11-18T04:11:10;18.27;;;11.63;;
12597;SDS011;6364;53.590;9.956;2023-11-18T04:13:36;19.50;;;11.73;;
12597;SDS011;6364;53.590;9.956;2023-11-18T04:16:01;18.33;;;11.75;;
12597;SDS011;6364;53.590;9.956;2023-11-18T04:18:28;18.98;;;11.57;;
12597;SDS011;6364;53.590;9.956;2023-11-18T04:20:54;17.70;;;11.75;;
12597;SDS011;6364;53.590;9.956;2023-11-18T04:23:19;18.45;;;12.23;;
12597;SDS011;6364;53.590;9.956;2023-11-18T04:25:44;16.95;;;10.80;;
12597;SDS011;6364;53.590;9.956;2023-11-18T04:28:10;18.13;;;11.10;;
12597;SDS011;6364;53.590;9.956;2023-11-18T04:30:35;17.63;;;11.57;;
12597;SDS011;6364;53.590;9.956;2023-11-18T04:33:01;17.13;;;11.43;;
12597;SDS011;6364;53.590;9.956;2023-11-18T04:35:26;17.33;;;11.02;;
12597;SDS011;6364;53.590;9.956;2023-11-18T04:37:51;16.92;;;11.65;;
12597;SDS011;6364;53.590;9.956;2023-11-18T04:40:17;17.65;;;11.75;;
12597;SDS011;6364;53.590;9.956;2023-11-18T04:42:42;18.58;;;11.98;;
12597;SDS011;6364;53.590;9.956;2023-11-18T04:45:08;17.05;;;11.48;;
12597;SDS011;6364;53.590;9.956;2023-11-18T04:47:34;21.75;;;12.50;;
12597;SDS011;6364;53.590;9.956;2023-11-18T04:50:01;22.45;;;12.20;;
12597;SDS011;6364;53.590;9.956;2023-11-18T04:52:28;20.08;;;12.88;;
12597;SDS011;6364;53.590;9.956;2023-11-18T04:54:53;18.55;;;12.23;;
12597;SDS011;6364;53.590;9.956;2023-11-18T04:57:19;18.13;;;12.00;;
12597;SDS011;6364;53.590;9.956;2023-11-18T04:59:44;17.63;;;12.32;;
12597;SDS011;6364;53.590;9.956;2023-11-18T05:02:10;19.58;;;11.98;;
12597;SDS011;6364;53.590;9.956;2023-11-18T05:04:35;23.75;;;12.27;;
12597;SDS011;6364;53.590;9.956;2023-11-18T05:07:01;20.90;;;11.55;;
12597;SDS011;6364;53.590;9.956;2023-11-18T05:09:26;21.33;;;12.40;;
12597;SDS011;6364;53.590;9.956;2023-11-18T05:11:51;18.40;;;11.90;;
12597;SDS011;6364;53.590;9.956;2023-11-18T05:14:17;18.17;;;12.00;;
12597;SDS011;6364;53.590;9.956;2023-11-18T05:16:43;18.83;;;12.65;;
12597;SDS011;6364;53.590;9.956;2023-11-18T05:19:09;17.70;;;11.43;;
12597;SDS011;6364;53.590;9.956;2023-11-18T05:21:34;22.15;;;12.18;;
12597;SDS011;6364;53.590;9.956;2023-11-18T05:23:59;22.70;;;12.55;;
12597;SDS011;6364;53.590;9.956;2023-11-18T05:26:25;20.70;;;12.73;;
12597;SDS011;6364;53.590;9.956;2023-11-18T05:28:51;23.63;;;13.30;;
12597;SDS011;6364;53.590;9.956;2023-11-18T05:31:17;20.52;;;13.27;;
12597;SDS011;6364;53.590;9.956;2023-11-18T05:33:43;21.25;;;13.15;;
12597;SDS011;6364;53.590;9.956;2023-11-18T05:36:08;19.83;;;12.10;;
12597;SDS011;6364;53.590;9.956;2023-11-18T05:38:35;20.40;;;12.43;;
12597;SDS011;6364;53.590;9.956;2023-11-18T05:41:02;19.80;;;13.00;;
12597;SDS011;6364;53.590;9.956;2023-11-18T05:43:30;21.15;;;13.45;;
12597;SDS011;6364;53.590;9.956;2023-11-18T05:46:08;20.77;;;13.00;;
12597;SDS011;6364;53.590;9.956;2023-11-18T05:48:42;24.02;;;13.48;;
12597;SDS011;6364;53.590;9.956;2023-11-18T05:51:07;23.75;;;13.90;;
12597;SDS011;6364;53.590;9.956;2023-11-18T05:53:33;25.05;;;13.68;;
12597;SDS011;6364;53.590;9.956;2023-11-18T05:55:58;24.20;;;13.43;;
12597;SDS011;6364;53.590;9.956;2023-11-18T05:58:24;20.20;;;12.48;;
12597;SDS011;6364;53.590;9.956;2023-11-18T06:00:49;23.92;;;13.00;;
12597;SDS011;6364;53.590;9.956;2023-11-18T06:03:14;20.00;;;12.93;;
12597;SDS011;6364;53.590;9.956;2023-11-18T06:05:40;24.63;;;13.52;;
12597;SDS011;6364;53.590;9.956;2023-11-18T06:08:05;21.13;;;12.80;;
12597;SDS011;6364;53.590;9.956;2023-11-18T06:10:32;26.38;;;14.13;;
12597;SDS011;6364;53.590;9.956;2023-11-18T06:12:59;22.27;;;13.27;;
12597;SDS011;6364;53.590;9.956;2023-11-18T06:15:25;22.85;;;12.73;;
12597;SDS011;6364;53.590;9.956;2023-11-18T06:17:50;24.05;;;14.00;;
12597;SDS011;6364;53.590;9.956;2023-11-18T06:20:15;23.83;;;13.65;;
12597;SDS011;6364;53.590;9.956;2023-11-18T06:22:42;22.58;;;12.73;;
12597;SDS011;6364;53.590;9.956;2023-11-18T06:25:07;28.13;;;14.48;;
12597;SDS011;6364;53.590;9.956;2023-11-18T06:27:33;25.67;;;13.60;;
12597;SDS011;6364;53.590;9.956;2023-11-18T06:29:59;24.75;;;13.50;;
12597;SDS011;6364;53.590;9.956;2023-11-18T06:32:24;24.50;;;12.95;;
12597;SDS011;6364;53.590;9.956;2023-11-18T06:34:52;25.55;;;14.73;;
12597;SDS011;6364;53.590;9.956;2023-11-18T06:37:18;23.80;;;13.25;;
12597;SDS011;6364;53.590;9.956;2023-11-18T06:39:44;27.42;;;14.05;;
12597;SDS011;6364;53.590;9.956;2023-11-18T06:42:12;24.98;;;13.82;;
12597;SDS011;6364;53.590;9.956;2023-11-18T06:44:38;27.15;;;13.48;;
12597;SDS011;6364;53.590;9.956;2023-11-18T06:47:04;25.27;;;14.02;;
12597;SDS011;6364;53.590;9.956;2023-11-18T06:49:31;28.45;;;13.93;;
12597;SDS011;6364;53.590;9.956;2023-11-18T06:51:59;25.90;;;14.55;;
12597;SDS011;6364;53.590;9.956;2023-11-18T06:54:27;28.90;;;14.40;;
12597;SDS011;6364;53.590;9.956;2023-11-18T06:56:53;30.73;;;15.52;;
12597;SDS011;6364;53.590;9.956;2023-11-18T06:59:18;26.55;;;14.85;;
12597;SDS011;6364;53.590;9.956;2023-11-18T07:01:44;25.13;;;14.40;;
12597;SDS011;6364;53.590;9.956;2023-11-18T07:04:09;27.65;;;14.30;;
12597;SDS011;6364;53.590;9.956;2023-11-18T07:06:35;27.55;;;14.95;;
12597;SDS011;6364;53.590;9.956;2023-11-18T07:09:03;28.92;;;14.63;;
12597;SDS011;6364;53.590;9.956;2023-11-18T07:11:33;27.25;;;14.90;;
12597;SDS011;6364;53.590;9.956;2023-11-18T07:13:59;27.83;;;14.98;;
12597;SDS011;6364;53.590;9.956;2023-11-18T07:16:24;27.88;;;15.15;;
12597;SDS011;6364;53.590;9.956;2023-11-18T07:18:50;28.27;;;15.02;;
12597;SDS011;6364;53.590;9.956;2023-11-18T07:21:16;26.63;;;15.18;;
12597;SDS011;6364;53.590;9.956;2023-11-18T07:23:42;26.73;;;14.85;;
12597;SDS011;6364;53.590;9.956;2023-11-18T07:26:08;33.05;;;15.95;;
12597;SDS011;6364;53.590;9.956;2023-11-18T07:28:35;34.17;;;15.00;;
12597;SDS011;6364;53.590;9.956;2023-11-18T07:31:01;28.40;;;15.25;;
12597;SDS011;6364;53.590;9.956;2023-11-18T07:33:29;33.35;;;15.13;;
12597;SDS011;6364;53.590;9.956;2023-11-18T07:35:56;27.70;;;15.55;;
12597;SDS011;6364;53.590;9.956;2023-11-18T07:38:21;26.88;;;15.15;;
12597;SDS011;6364;53.590;9.956;2023-11-18T07:40:48;27.67;;;15.65;;
12597;SDS011;6364;53.590;9.956;2023-11-18T07:43:14;28.02;;;15.05;;
12597;SDS011;6364;53.590;9.956;2023-11-18T07:45:40;29.23;;;15.93;;
12597;SDS011;6364;53.590;9.956;2023-11-18T07:48:07;29.58;;;15.18;;
12597;SDS011;6364;53.590;9.956;2023-11-18T07:50:36;30.15;;;15.68;;
12597;SDS011;6364;53.590;9.956;2023-11-18T07:53:02;31.08;;;17.00;;
12597;SDS011;6364;53.590;9.956;2023-11-18T07:55:28;31.08;;;16.30;;
12597;SDS011;6364;53.590;9.956;2023-11-18T07:57:54;32.15;;;17.40;;
12597;SDS011;6364;53.590;9.956;2023-11-18T08:00:19;29.92;;;16.48;;
12597;SDS011;6364;53.590;9.956;2023-11-18T08:02:45;28.60;;;16.50;;
12597;SDS011;6364;53.590;9.956;2023-11-18T08:05:11;29.52;;;16.45;;
12597;SDS011;6364;53.590;9.956;2023-11-18T08:07:40;31.98;;;17.33;;
12597;SDS011;6364;53.590;9.956;2023-11-18T08:10:09;31.55;;;17.42;;
12597;SDS011;6364;53.590;9.956;2023-11-18T08:12:38;33.15;;;17.17;;
12597;SDS011;6364;53.590;9.956;2023-11-18T08:15:05;29.00;;;16.55;;
12597;SDS011;6364;53.590;9.956;2023-11-18T08:17:31;32.55;;;15.75;;
12597;SDS011;6364;53.590;9.956;2023-11-18T08:19:57;27.30;;;15.68;;
12597;SDS011;6364;53.590;9.956;2023-11-18T08:22:22;27.45;;;15.05;;
12597;SDS011;6364;53.590;9.956;2023-11-18T08:24:49;27.38;;;14.70;;
12597;SDS011;6364;53.590;9.956;2023-11-18T08:27:14;26.50;;;13.77;;
12597;SDS011;6364;53.590;9.956;2023-11-18T08:29:40;25.23;;;14.48;;
12597;SDS011;6364;53.590;9.956;2023-11-18T08:32:06;21.65;;;11.70;;
12597;SDS011;6364;53.590;9.956;2023-11-18T08:34:34;21.00;;;11.13;;
12597;SDS011;6364;53.590;9.956;2023-11-18T08:37:00;20.05;;;11.63;;
12597;SDS011;6364;53.590;9.956;2023-11-18T08:39:28;18.30;;;11.10;;
12597;SDS011;6364;53.590;9.956;2023-11-18T08:41:54;19.75;;;11.27;;
12597;SDS011;6364;53.590;9.956;2023-11-18T08:44:19;18.08;;;10.85;;
12597;SDS011;6364;53.590;9.956;2023-11-18T08:46:45;20.73;;;11.68;;
12597;SDS011;6364;53.590;9.956;2023-11-18T08:49:10;23.52;;;11.80;;
12597;SDS011;6364;53.590;9.956;2023-11-18T08:51:36;19.80;;;11.80;;
12597;SDS011;6364;53.590;9.956;2023-11-18T08:54:02;19.10;;;10.57;;
12597;SDS011;6364;53.590;9.956;2023-11-18T08:56:47;19.35;;;9.60;;
12597;SDS011;6364;53.590;9.956;2023-11-18T08:59:17;20.42;;;10.25;;
12597;SDS011;6364;53.590;9.956;2023-11-18T09:01:49;17.70;;;10.30;;
12597;SDS011;6364;53.590;9.956;2023-11-18T09:04:17;22.35;;;10.68;;
12597;SDS011;6364;53.590;9.956;2023-11-18T09:06:45;16.55;;;9.07;;
12597;SDS011;6364;53.590;9.956;2023-11-18T09:09:10;17.17;;;8.27;;
12597;SDS011;6364;53.590;9.956;2023-11-18T09:11:38;15.23;;;9.20;;
12597;SDS011;6364;53.590;9.956;2023-11-18T09:14:05;16.92;;;8.50;;
12597;SDS011;6364;53.590;9.956;2023-11-18T09:16:35;18.80;;;8.30;;
12597;SDS011;6364;53.590;9.956;2023-11-18T09:19:04;14.82;;;8.80;;
12597;SDS011;6364;53.590;9.956;2023-11-18T09:21:31;15.68;;;8.73;;
12597;SDS011;6364;53.590;9.956;2023-11-18T09:24:00;13.75;;;8.40;;
12597;SDS011;6364;53.590;9.956;2023-11-18T09:26:27;13.30;;;8.70;;
12597;SDS011;6364;53.590;9.956;2023-11-18T09:28:55;15.82;;;8.30;;
12597;SDS011;6364;53.590;9.956;2023-11-18T09:31:20;14.07;;;7.68;;
12597;SDS011;6364;53.590;9.956;2023-11-18T09:33:46;14.60;;;8.18;;
12597;SDS011;6364;53.590;9.956;2023-11-18T09:36:17;17.83;;;9.25;;
12597;SDS011;6364;53.590;9.956;2023-11-18T09:38:43;14.60;;;9.10;;
12597;SDS011;6364;53.590;9.956;2023-11-18T09:41:11;15.85;;;9.10;;
12597;SDS011;6364;53.590;9.956;2023-11-18T09:43:37;16.52;;;9.52;;
12597;SDS011;6364;53.590;9.956;2023-11-18T09:46:09;18.92;;;9.52;;
12597;SDS011;6364;53.590;9.956;2023-11-18T09:48:48;13.95;;;8.82;;
12597;SDS011;6364;53.590;9.956;2023-11-18T09:51:27;13.70;;;8.82;;
12597;SDS011;6364;53.590;9.956;2023-11-18T09:54:01;12.55;;;8.27;;
12597;SDS011;6364;53.590;9.956;2023-11-18T09:56:37;14.35;;;8.40;;
12597;SDS011;6364;53.590;9.956;2023-11-18T09:59:17;10.80;;;7.35;;
12597;SDS011;6364;53.590;9.956;2023-11-18T10:04:22;14.90;;;6.88;;
12597;SDS011;6364;53.590;9.956;2023-11-18T10:06:52;14.13;;;7.72;;
12597;SDS011;6364;53.590;9.956;2023-11-18T10:09:18;11.80;;;7.38;;
12597;SDS011;6364;53.590;9.956;2023-11-18T10:11:53;9.43;;;6.75;;
12597;SDS011;6364;53.590;9.956;2023-11-18T10:14:25;14.38;;;7.43;;
12597;SDS011;6364;53.590;9.956;2023-11-18T10:16:51;11.20;;;6.63;;
12597;SDS011;6364;53.590;9.956;2023-11-18T10:19:22;10.65;;;6.88;;
12597;SDS011;6364;53.590;9.956;2023-11-18T10:21:51;9.77;;;5.95;;
12597;SDS011;6364;53.590;9.956;2023-11-18T10:24:16;11.63;;;6.22;;
12597;SDS011;6364;53.590;9.956;2023-11-18T10:27:05;9.73;;;6.45;;
12597;SDS011;6364;53.590;9.956;2023-11-18T10:29:33;10.98;;;7.50;;
12597;SDS011;6364;53.590;9.956;2023-11-18T10:32:05;7.72;;;5.30;;
12597;SDS011;6364;53.590;9.956;2023-11-18T10:34:35;8.25;;;5.10;;
12597;SDS011;6364;53.590;9.956;2023-11-18T10:37:04;7.68;;;5.45;;
12597;SDS011;6364;53.590;9.956;2023-11-18T10:39:31;6.28;;;4.65;;
12597;SDS011;6364;53.590;9.956;2023-11-18T10:42:00;7.32;;;4.53;;
12597;SDS011;6364;53.590;9.956;2023-11-18T10:44:26;7.10;;;4.30;;
12597;SDS011;6364;53.590;9.956;2023-11-18T10:46:52;6.38;;;4.75;;
12597;SDS011;6364;53.590;9.956;2023-11-18T10:49:18;6.78;;;5.10;;
12597;SDS011;6364;53.590;9.956;2023-11-18T10:51:45;6.03;;;4.63;;
12597;SDS011;6364;53.590;9.956;2023-11-18T10:54:12;6.75;;;4.90;;
12597;SDS011;6364;53.590;9.956;2023-11-18T10:56:50;8.65;;;5.18;;
12597;SDS011;6364;53.590;9.956;2023-11-18T10:59:21;8.88;;;5.13;;
12597;SDS011;6364;53.590;9.956;2023-11-18T11:01:47;10.57;;;5.07;;
12597;SDS011;6364;53.590;9.956;2023-11-18T11:04:14;5.63;;;4.18;;
12597;SDS011;6364;53.590;9.956;2023-11-18T11:06:49;7.13;;;4.68;;
12597;SDS011;6364;53.590;9.956;2023-11-18T11:09:26;8.48;;;4.40;;
12597;SDS011;6364;53.590;9.956;2023-11-18T11:12:00;7.50;;;4.13;;
12597;SDS011;6364;53.590;9.956;2023-11-18T11:14:41;6.00;;;4.38;;
12597;SDS011;6364;53.590;9.956;2023-11-18T11:17:16;6.15;;;3.70;;
12597;SDS011;6364;53.590;9.956;2023-11-18T11:19:50;6.35;;;4.05;;
12597;SDS011;6364;53.590;9.956;2023-11-18T11:22:22;7.70;;;4.50;;
12597;SDS011;6364;53.590;9.956;2023-11-18T11:28:22;8.18;;;4.68;;
12597;SDS011;6364;53.590;9.956;2023-11-18T11:31:03;6.68;;;5.00;;
12597;SDS011;6364;53.590;9.956;2023-11-18T11:36:42;8.48;;;5.07;;
12597;SDS011;6364;53.590;9.956;2023-11-18T11:39:08;6.20;;;4.82;;
12597;SDS011;6364;53.590;9.956;2023-11-18T11:42:01;6.10;;;4.53;;
12597;SDS011;6364;53.590;9.956;2023-11-18T11:44:26;6.60;;;4.72;;
12597;SDS011;6364;53.590;9.956;2023-11-18T11:46:55;6.85;;;5.25;;
12597;SDS011;6364;53.590;9.956;2023-11-18T11:49:21;5.70;;;5.00;;
12597;SDS011;6364;53.590;9.956;2023-11-18T11:52:13;6.28;;;4.75;;
12597;SDS011;6364;53.590;9.956;2023-11-18T11:54:48;7.47;;;5.32;;
12597;SDS011;6364;53.590;9.956;2023-11-18T11:57:21;7.78;;;5.22;;
12597;SDS011;6364;53.590;9.956;2023-11-18T12:02:18;7.90;;;5.40;;
12597;SDS011;6364;53.590;9.956;2023-11-18T12:04:54;7.47;;;5.70;;
12597;SDS011;6364;53.590;9.956;2023-11-18T12:07:23;9.57;;;6.15;;
12597;SDS011;6364;53.590;9.956;2023-11-18T12:09:59;9.38;;;6.07;;
12597;SDS011;6364;53.590;9.956;2023-11-18T12:14:58;8.73;;;5.80;;
12597;SDS011;6364;53.590;9.956;2023-11-18T12:18:09;7.65;;;5.85;;
12597;SDS011;6364;53.590;9.956;2023-11-18T12:20:40;8.75;;;6.28;;
12597;SDS011;6364;53.590;9.956;2023-11-18T12:23:12;9.07;;;6.18;;
12597;SDS011;6364;53.590;9.956;2023-11-18T12:25:43;9.02;;;6.43;;
12597;SDS011;6364;53.590;9.956;2023-11-18T12:28:31;9.02;;;6.38;;
12597;SDS011;6364;53.590;9.956;2023-11-18T12:30:59;8.10;;;5.80;;
12597;SDS011;6364;53.590;9.956;2023-11-18T12:42:01;10.00;;;5.82;;
12597;SDS011;6364;53.590;9.956;2023-11-18T12:44:31;9.38;;;5.50;;
12597;SDS011;6364;53.590;9.956;2023-11-18T12:47:04;7.75;;;5.07;;
12597;SDS011;6364;53.590;9.956;2023-11-18T12:49:46;6.65;;;4.85;;
12597;SDS011;6364;53.590;9.956;2023-11-18T12:52:21;8.50;;;5.07;;
12597;SDS011;6364;53.590;9.956;2023-11-18T12:54:48;8.00;;;4.20;;
12597;SDS011;6364;53.590;9.956;2023-11-18T12:57:19;6.68;;;4.78;;
12597;SDS011;6364;53.590;9.956;2023-11-18T12:59:47;6.18;;;4.32;;
12597;SDS011;6364;53.590;9.956;2023-11-18T13:02:14;7.35;;;4.65;;
12597;SDS011;6364;53.590;9.956;2023-11-18T13:04:46;5.90;;;4.40;;
12597;SDS011;6364;53.590;9.956;2023-11-18T13:07:18;7.22;;;4.43;;
12597;SDS011;6364;53.590;9.956;2023-11-18T13:09:45;8.80;;;4.43;;
12597;SDS011;6364;53.590;9.956;2023-11-18T13:12:11;6.35;;;4.82;;
12597;SDS011;6364;53.590;9.956;2023-11-18T13:14:40;5.72;;;4.10;;
12597;SDS011;6364;53.590;9.956;2023-11-18T13:17:10;6.15;;;4.30;;
12597;SDS011;6364;53.590;9.956;2023-11-18T13:19:37;7.13;;;4.40;;
12597;SDS011;6364;53.590;9.956;2023-11-18T13:22:10;8.18;;;4.72;;
12597;SDS011;6364;53.590;9.956;2023-11-18T13:24:37;6.60;;;4.20;;
12597;SDS011;6364;53.590;9.956;2023-11-18T13:27:06;5.57;;;4.28;;
12597;SDS011;6364;53.590;9.956;2023-11-18T13:29:34;8.52;;;4.38;;
12597;SDS011;6364;53.590;9.956;2023-11-18T13:32:00;6.57;;;4.55;;
12597;SDS011;6364;53.590;9.956;2023-11-18T13:34:29;10.38;;;4.50;;
12597;SDS011;6364;53.590;9.956;2023-11-18T13:36:57;7.22;;;4.90;;
12597;SDS011;6364;53.590;9.956;2023-11-18T13:39:22;6.90;;;5.13;;
12597;SDS011;6364;53.590;9.956;2023-11-18T13:41:52;5.47;;;4.38;;
12597;SDS011;6364;53.590;9.956;2023-11-18T13:44:34;8.50;;;5.07;;
12597;SDS011;6364;53.590;9.956;2023-11-18T13:46:59;7.22;;;5.20;;
12597;SDS011;6364;53.590;9.956;2023-11-18T13:49:30;7.28;;;5.00;;
12597;SDS011;6364;53.590;9.956;2023-11-18T13:51:55;6.40;;;5.10;;
12597;SDS011;6364;53.590;9.956;2023-11-18T13:54:21;7.43;;;5.20;;
12597;SDS011;6364;53.590;9.956;2023-11-18T13:56:47;7.43;;;4.57;;
12597;SDS011;6364;53.590;9.956;2023-11-18T13:59:16;6.80;;;5.10;;
12597;SDS011;6364;53.590;9.956;2023-11-18T14:01:42;11.65;;;5.90;;
12597;SDS011;6364;53.590;9.956;2023-11-18T14:04:07;7.50;;;5.68;;
12597;SDS011;6364;53.590;9.956;2023-11-18T14:06:35;8.88;;;5.68;;
12597;SDS011;6364;53.590;9.956;2023-11-18T14:09:02;7.20;;;5.55;;
12597;SDS011;6364;53.590;9.956;2023-11-18T14:11:29;8.00;;;5.88;;
12597;SDS011;6364;53.590;9.956;2023-11-18T14:13:54;7.45;;;5.53;;
12597;SDS011;6364;53.590;9.956;2023-11-18T14:16:20;8.32;;;5.72;;
12597;SDS011;6364;53.590;9.956;2023-11-18T14:18:48;6.68;;;5.68;;
12597;SDS011;6364;53.590;9.956;2023-11-18T14:21:14;9.38;;;6.05;;
12597;SDS011;6364;53.590;9.956;2023-11-18T14:23:40;8.43;;;5.68;;
12597;SDS011;6364;53.590;9.956;2023-11-18T14:26:06;8.57;;;6.00;;
12597;SDS011;6364;53.590;9.956;2023-11-18T14:28:33;10.10;;;6.28;;
12597;SDS011;6364;53.590;9.956;2023-11-18T14:31:00;14.60;;;6.72;;
12597;SDS011;6364;53.590;9.956;2023-11-18T14:33:26;9.60;;;6.40;;
12597;SDS011;6364;53.590;9.956;2023-11-18T14:35:53;10.07;;;6.57;;
12597;SDS011;6364;53.590;9.956;2023-11-18T14:38:18;8.43;;;5.90;;
12597;SDS011;6364;53.590;9.956;2023-11-18T14:40:45;8.75;;;5.35;;
12597;SDS011;6364;53.590;9.956;2023-11-18T14:43:13;10.90;;;6.43;;
12597;SDS011;6364;53.590;9.956;2023-11-18T14:45:39;10.77;;;6.15;;
12597;SDS011;6364;53.590;9.956;2023-11-18T14:48:05;10.73;;;6.10;;
12597;SDS011;6364;53.590;9.956;2023-11-18T14:50:30;9.40;;;5.88;;
12597;SDS011;6364;53.590;9.956;2023-11-18T14:52:56;10.10;;;6.95;;
12597;SDS011;6364;53.590;9.956;2023-11-18T14:55:28;10.52;;;6.93;;
12597;SDS011;6364;53.590;9.956;2023-11-18T14:57:54;11.82;;;7.30;;
12597;SDS011;6364;53.590;9.956;2023-11-18T15:00:20;11.40;;;7.70;;
12597;SDS011;6364;53.590;9.956;2023-11-18T15:02:52;12.02;;;7.20;;
12597;SDS011;6364;53.590;9.956;2023-11-18T15:05:18;9.02;;;6.20;;
12597;SDS011;6364;53.590;9.956;2023-11-18T15:07:45;11.55;;;6.72;;
12597;SDS011;6364;53.590;9.956;2023-11-18T15:10:13;12.40;;;7.13;;
12597;SDS011;6364;53.590;9.956;2023-11-18T15:12:40;10.55;;;6.60;;